Baird, Texas
Current Conditions -  °F | °C
As of 8:52 PM on Sunday 21 Dec 2014 (Local Time) from KABI Reporting Station
Clear Clear  
Wind Chill: 54°   Ceiling: Unl
Heat Index: 54°   Visibility: 10mi
Dew Point: 42°   Wind: 16mph
Humidity: 64%   Direction: 190°S
Pressure: 29.69"   Gusts: NA
Location:  32.39°N, 99.39°W
Report Text: KABI 220252Z 19014KT 10SM CLR 12/06 A2969 RMK AO2 SLP047 T01220056 58009
Loading
Personal Weather Stations






























Interactive Weather Map New forecast layout! Learn more

10-Day Weather Forecast

Advertisements
Track Severe Weather on mobile